Huron, California
Current Conditions -  °F | °C
As of 5:56 AM on Sunday 25 Jan 2015 (Local Time) from KNLC Reporting Station
Overcast Overcast  
Wind Chill: 39°   Ceiling: 200
Heat Index: 39°   Visibility: NA
Dew Point: 39°   Wind: 3mph
Humidity: 100%   Direction: 200°SSW
Pressure: 30.18"   Gusts: NA
Location:  36.2°N, 120.1°W
Report Text: KNLC 251356Z AUTO 20003KT OVC002 04/04 A3018 RMK AO2 SLP221 T00390039 RVRNO $
Loading
Personal Weather Stations






























Interactive Weather Map New forecast layout! Learn more

10-Day Weather Forecast

Advertisements
Track Severe Weather on mobile